Share

Plainfield, IA

Wartburg College Observatory (KIAWAVER1) Elev 928 ft | 42.73 °N, 92.49 °W | Change Station

Current weather conditions updated 2 seconds ago

Clear
Clear
51.2 °F
Feels Like 51.2 °F
N
0.0
Wind Variable Wind from ESE
Gusts 0.0 mph
Sunrise 6:23 AM
Sunset 7:55 PM
Moon Waning Gibbous

Tomorrow is forecast to be Much Warmer than today. Showers late tomorrow night.

Pressure 30.22 in
Visibility 10.0 miles
Clouds Clear
Dew Point 35 °F
Humidity 54%
Rainfall 0.00 in
Snow Depth Not available.
UV 0.0 out of 16
Pollen 9.70 out of 12
Air Quality Not available.
Flu Activity Sporadic
METAR KCCY 190235Z AUTO 12009KT 10SM CLR 10/M00 A3022 RMK AO2

More Conditions Fewer Conditions

Pressure 30.22 in
Visibility 10.0 miles
Clouds Clear
Dew Point 35 °F
Humidity 54%
Rainfall 0.00 in
Snow Depth Not available.
UV 0.0 out of 16
Pollen 9.70 out of 12
Air Quality Not available.
Flu Activity Sporadic
METAR KCCY 190235Z AUTO 12009KT 10SM CLR 10/M00 A3022 RMK AO2

More Conditions Fewer Conditions

10-Day Weather Forecast

Almanac

Astronomy

Apr. 18, 2014 Rise Set
Actual Time 6:23 AM CDT 7:55 PM CDT
Civil Twilight 5:54 AM CDT 8:25 PM CDT
Nautical Twilight 5:18 AM CDT 9:01 PM CDT
Astronomical Twilight 4:39 AM CDT 9:40 PM CDT
Moon 11:45 PM CDT (4/18) 8:43 AM CDT (4/18)
Length of Visible Light 14h 31m
Length of Day
13h 32m
Tomorrow will be 2m 44s longer.
Waning Gibbous, 83% of the Moon is Illuminated
Today
Waning Gibbous
Apr 22
Last Quarter
Apr 29
New
May 6
First Quarter
May 14
Full

Today's Extremes

State Highs State Lows

Community

  • Sunset Silhouettes
    Sunset Silhouettes
  • FL sunset Perico Isle
    FL sunset Perico Isle
  • Cloudy spring view
    Cloudy spring view
  • Old barn
    Old barn
  • What's for Lunch?
    What's for Lunch?

WunderPhotos

Upload Photos

1,702,600 photos uploaded!

WunderBlogs® & News

Nearby

Snow Depth

Station Depth Elevation
No new snow has been reported.

Coastal Water Temperatures

Place Temperature
No Stations Reporting

Earthquake Activity

City Distance Mag. Time & Date
No recent earthquake activity has been reported nearby.
Minimum magnitude displayed is 2.5.

Nearby Weather Stations

Station Location Temp. Windchill Dew Point Humidity Wind Precip. Elev Updated Type
Wartburg College Observatory, Waverly, IA 51.2 °F - 35 °F 54% ESE  at  0.0 mph 0.00 in / hr 928 ft 9:54 PM CDT Rapid Fire
Laurel Circle, Cedar Falls, IA 54.3 °F - 32 °F 43% SE  at  2.2 mph 0.00 in / hr 942 ft 9:50 PM CDT Normal
Radio Station N0VTZ; 5 Mi. North of, Sumner, IA 44.4 °F 41 °F 28 °F 53% East  at  6.2 mph 0.00 in / hr 1145 ft 9:54 PM CDT Rapid Fire
DDMET Cedar Falls, IA, Cedar Falls, IA 53 °F - 40 °F 62% North  at  - 0.00 in / hr 939 ft 9:30 PM CDT MADIS
Micah's House, Cedar Falls, IA 53.3 °F - 34 °F 48% ESE  at  2.0 mph 0.00 in / hr 924 ft 9:54 PM CDT Normal

Show More Stations Show Fewer Stations

What do you think?

We're not finished. Please let us know what you like, what you don't like, and what you are still missing.